createdAt,value
2023-03-29T00:00:38.308Z,75.00
2023-03-29T00:03:07.025Z,75.20
2023-03-29T00:05:36.117Z,75.40
2023-03-29T00:08:04.692Z,75.40
2023-03-29T00:10:33.957Z,75.40
2023-03-29T00:13:04.521Z,75.60
2023-03-29T00:15:33.499Z,75.60
2023-03-29T00:18:01.636Z,75.80
2023-03-29T00:20:30.502Z,75.60
2023-03-29T00:22:58.929Z,75.80
2023-03-29T00:25:27.777Z,75.90
2023-03-29T00:27:56.462Z,76.10
2023-03-29T00:30:27.205Z,76.10
2023-03-29T00:32:56.187Z,76.20
2023-03-29T00:35:24.454Z,76.40
2023-03-29T00:37:53.093Z,76.20
2023-03-29T00:40:21.676Z,76.00
2023-03-29T00:42:49.996Z,76.20
2023-03-29T00:45:20.628Z,76.10
2023-03-29T00:47:52.532Z,76.30
2023-03-29T00:50:26.320Z,76.30
2023-03-29T00:52:57.947Z,76.20
2023-03-29T00:55:27.719Z,76.10
2023-03-29T00:57:58.830Z,76.00
2023-03-29T01:00:31.183Z,76.00
2023-03-29T01:03:02.257Z,75.60
2023-03-29T01:05:33.289Z,75.40
2023-03-29T01:08:04.293Z,75.40
2023-03-29T01:10:37.056Z,75.30
2023-03-29T01:13:09.666Z,75.10
2023-03-29T01:15:39.140Z,75.10
2023-03-29T01:18:10.602Z,75.20
2023-03-29T01:20:49.062Z,75.60
2023-03-29T01:23:29.548Z,75.60
2023-03-29T01:26:02.135Z,75.80
2023-03-29T01:28:36.168Z,75.60
2023-03-29T01:31:08.480Z,75.50
2023-03-29T01:33:40.065Z,75.50
2023-03-29T01:36:13.358Z,75.50
2023-03-29T01:38:43.909Z,75.50
2023-03-29T01:41:12.794Z,75.40
2023-03-29T01:43:45.369Z,75.60
2023-03-29T01:46:16.642Z,75.80
2023-03-29T01:48:48.383Z,76.00
2023-03-29T01:51:18.540Z,76.30
2023-03-29T01:53:48.284Z,76.40
2023-03-29T01:56:20.821Z,76.60
2023-03-29T01:58:55.752Z,76.80
2023-03-29T02:01:26.873Z,76.80
2023-03-29T02:03:57.076Z,76.60
2023-03-29T02:06:29.354Z,76.80
2023-03-29T02:08:57.950Z,76.90
2023-03-29T02:11:29.292Z,76.80
2023-03-29T02:13:59.770Z,76.60
2023-03-29T02:16:28.583Z,76.50
2023-03-29T02:18:58.271Z,76.30
2023-03-29T02:21:28.179Z,76.30
2023-03-29T02:23:57.220Z,76.20
2023-03-29T02:26:26.667Z,76.10
2023-03-29T02:28:55.442Z,76.00
2023-03-29T02:31:27.977Z,76.00
2023-03-29T02:33:59.642Z,76.10
2023-03-29T02:36:31.502Z,75.90
2023-03-29T02:39:01.887Z,75.90
2023-03-29T02:41:30.523Z,75.80
2023-03-29T02:44:00.202Z,76.10
2023-03-29T02:46:32.372Z,76.30
2023-03-29T02:49:01.616Z,76.50
2023-03-29T02:51:31.070Z,76.50
2023-03-29T02:54:03.079Z,76.60
2023-03-29T02:56:31.986Z,76.90
2023-03-29T02:59:00.526Z,77.10
2023-03-29T03:01:29.218Z,77.30
2023-03-29T03:03:59.494Z,77.40
2023-03-29T03:06:29.268Z,77.40
2023-03-29T03:08:57.638Z,77.20
2023-03-29T03:11:25.922Z,77.10
2023-03-29T03:13:54.572Z,76.90
2023-03-29T03:16:23.901Z,76.90
2023-03-29T03:18:53.969Z,76.70
2023-03-29T03:21:24.708Z,76.60
2023-03-29T03:23:54.668Z,76.50
2023-03-29T03:26:24.860Z,76.40
2023-03-29T03:28:53.530Z,76.40
2023-03-29T03:31:41.890Z,76.30
2023-03-29T03:34:36.642Z,76.40
2023-03-29T03:37:07.316Z,76.30
2023-03-29T03:39:37.015Z,76.40
2023-03-29T03:42:08.964Z,76.40
2023-03-29T03:44:43.360Z,76.50
2023-03-29T03:47:43.659Z,76.40
2023-03-29T03:50:21.296Z,76.80
2023-03-29T03:52:51.955Z,77.00
2023-03-29T03:55:22.797Z,77.10
2023-03-29T03:58:07.490Z,77.20
2023-03-29T04:00:38.292Z,77.20
2023-03-29T04:03:24.406Z,77.30
2023-03-29T04:05:52.893Z,77.50
2023-03-29T04:08:25.843Z,77.50
2023-03-29T04:11:20.885Z,77.50
2023-03-29T04:13:52.989Z,77.90
2023-03-29T04:16:50.255Z,78.10
2023-03-29T04:19:38.818Z,78.10
2023-03-29T04:22:09.778Z,78.00
2023-03-29T04:24:46.575Z,78.10
2023-03-29T04:27:42.227Z,78.10
2023-03-29T04:30:19.878Z,78.00
2023-03-29T04:33:06.823Z,78.00
2023-03-29T04:35:38.312Z,77.70
2023-03-29T04:38:16.701Z,77.70
2023-03-29T04:40:50.050Z,77.70
2023-03-29T04:43:32.528Z,77.60
2023-03-29T04:46:10.335Z,77.50
2023-03-29T04:48:57.486Z,77.50
2023-03-29T04:51:35.305Z,77.30
2023-03-29T04:54:04.763Z,77.10
2023-03-29T04:56:46.147Z,77.20
2023-03-29T04:59:37.553Z,77.30
2023-03-29T05:02:17.570Z,77.30
2023-03-29T05:04:50.560Z,77.40
2023-03-29T05:07:20.429Z,77.50
2023-03-29T05:09:49.320Z,77.60
2023-03-29T05:12:19.174Z,77.40
2023-03-29T05:14:53.907Z,77.50
2023-03-29T05:17:27.727Z,77.70
2023-03-29T05:20:07.590Z,77.90
2023-03-29T05:22:36.339Z,78.00
2023-03-29T05:25:05.089Z,78.00
2023-03-29T05:27:34.636Z,78.10
2023-03-29T05:30:09.578Z,77.90
2023-03-29T05:33:00.507Z,77.80
2023-03-29T05:35:31.104Z,77.80
2023-03-29T05:38:02.219Z,77.80
2023-03-29T05:40:31.612Z,77.50
2023-03-29T05:43:19.751Z,77.30
2023-03-29T05:45:48.695Z,76.60
2023-03-29T05:48:17.341Z,76.30
2023-03-29T05:50:48.441Z,76.50
2023-03-29T05:53:18.318Z,75.90
2023-03-29T05:55:47.808Z,75.70
2023-03-29T05:58:21.596Z,75.60
2023-03-29T06:00:51.462Z,75.50
2023-03-29T06:03:43.371Z,75.00
2023-03-29T06:06:15.224Z,74.70
2023-03-29T06:08:44.495Z,74.70
2023-03-29T06:11:32.068Z,74.80
2023-03-29T06:14:19.048Z,74.40
2023-03-29T06:16:55.324Z,74.30
2023-03-29T06:19:24.623Z,74.00
2023-03-29T06:21:54.313Z,74.00
2023-03-29T06:24:27.177Z,73.90
2023-03-29T06:27:02.919Z,73.40
2023-03-29T06:29:33.801Z,73.60
2023-03-29T06:32:02.205Z,73.70
2023-03-29T06:34:51.333Z,73.50
2023-03-29T06:37:32.074Z,73.80
2023-03-29T06:40:23.129Z,73.70
2023-03-29T06:42:58.082Z,73.70
2023-03-29T06:45:37.846Z,73.60
2023-03-29T06:48:11.494Z,73.60
2023-03-29T06:50:40.383Z,74.00
2023-03-29T06:53:11.913Z,73.60
2023-03-29T06:55:42.154Z,74.00
2023-03-29T06:58:29.453Z,73.80
2023-03-29T07:01:04.860Z,73.90
2023-03-29T07:03:47.796Z,74.10
2023-03-29T07:06:20.682Z,74.10
2023-03-29T07:08:52.688Z,74.20
2023-03-29T07:11:42.993Z,74.30
2023-03-29T07:14:21.987Z,74.60
2023-03-29T07:16:52.354Z,74.60
2023-03-29T07:19:30.378Z,74.50
2023-03-29T07:22:14.215Z,74.50
2023-03-29T07:24:50.834Z,74.00
2023-03-29T07:27:19.634Z,74.00
2023-03-29T07:29:51.938Z,74.20
2023-03-29T07:32:24.955Z,74.20
2023-03-29T07:35:02.328Z,74.30
2023-03-29T07:37:37.918Z,73.90
2023-03-29T07:40:12.516Z,73.60
2023-03-29T07:42:51.845Z,74.00
2023-03-29T07:45:26.042Z,73.60
2023-03-29T07:48:12.460Z,73.30
2023-03-29T07:50:51.882Z,72.60
2023-03-29T07:53:27.039Z,72.60
2023-03-29T07:55:58.872Z,72.50
2023-03-29T07:58:44.306Z,71.80
2023-03-29T08:01:18.874Z,71.60
2023-03-29T08:04:15.315Z,71.40
2023-03-29T08:07:06.591Z,71.10
2023-03-29T08:10:09.342Z,70.50
2023-03-29T08:12:58.461Z,70.00
2023-03-29T08:15:39.686Z,70.40
2023-03-29T08:18:17.106Z,70.20
2023-03-29T08:20:47.288Z,70.40
2023-03-29T08:23:15.822Z,70.10
2023-03-29T08:26:13.831Z,69.40
2023-03-29T08:28:42.522Z,68.70
2023-03-29T08:31:13.051Z,68.40
2023-03-29T08:33:45.706Z,67.70
2023-03-29T08:36:40.528Z,67.70
2023-03-29T08:39:27.740Z,65.80
2023-03-29T08:42:33.897Z,65.00
2023-03-29T08:45:05.253Z,65.10
2023-03-29T08:47:38.294Z,64.40
2023-03-29T08:50:10.335Z,63.70
2023-03-29T08:52:48.226Z,63.40
2023-03-29T08:55:38.200Z,63.40
2023-03-29T08:58:43.442Z,61.70
2023-03-29T09:01:12.394Z,59.90
2023-03-29T09:03:58.289Z,60.10
2023-03-29T09:06:40.980Z,61.00
2023-03-29T09:09:22.322Z,61.80
2023-03-29T09:12:00.489Z,62.10
2023-03-29T09:14:53.534Z,62.40
2023-03-29T09:17:29.138Z,63.60
2023-03-29T09:20:03.010Z,64.40
2023-03-29T09:22:35.392Z,64.30
2023-03-29T09:25:12.086Z,64.10
2023-03-29T09:27:45.229Z,63.10
2023-03-29T09:30:45.023Z,63.50
2023-03-29T09:33:20.358Z,62.80
2023-03-29T09:36:04.227Z,63.20
2023-03-29T09:38:38.704Z,64.20
2023-03-29T09:41:14.870Z,65.30
2023-03-29T09:43:44.460Z,65.50
2023-03-29T09:46:18.394Z,66.40
2023-03-29T09:48:48.684Z,67.60
2023-03-29T09:51:19.303Z,67.60
2023-03-29T09:53:48.642Z,67.10
2023-03-29T09:56:37.775Z,66.20
2023-03-29T09:59:13.351Z,65.00
2023-03-29T10:01:45.449Z,65.30
2023-03-29T10:04:19.408Z,64.70
2023-03-29T10:06:54.527Z,64.00
2023-03-29T10:09:26.594Z,64.40
2023-03-29T10:12:09.727Z,64.30
2023-03-29T10:14:39.554Z,64.80
2023-03-29T10:17:13.713Z,65.00
2023-03-29T10:19:48.315Z,65.30
2023-03-29T10:22:19.201Z,66.20
2023-03-29T10:24:51.702Z,66.60
2023-03-29T10:27:23.387Z,66.70
2023-03-29T10:29:52.438Z,66.40
2023-03-29T10:32:29.209Z,65.40
2023-03-29T10:35:01.497Z,66.20
2023-03-29T10:37:29.673Z,66.20
2023-03-29T10:39:58.272Z,66.80
2023-03-29T10:42:29.749Z,65.80
2023-03-29T10:44:59.605Z,65.20
2023-03-29T10:47:34.576Z,62.80
2023-03-29T10:50:07.363Z,62.40
2023-03-29T10:52:35.559Z,62.00
2023-03-29T10:55:04.257Z,62.20
2023-03-29T10:57:44.172Z,62.30
2023-03-29T11:00:18.606Z,61.00
2023-03-29T11:03:19.500Z,59.90
2023-03-29T11:05:51.087Z,59.90
2023-03-29T11:08:32.059Z,59.30
2023-03-29T11:11:06.409Z,59.20
2023-03-29T11:13:39.368Z,59.40
2023-03-29T11:16:13.877Z,59.30
2023-03-29T11:18:52.988Z,57.20
2023-03-29T11:21:25.252Z,57.10
2023-03-29T11:24:01.130Z,57.00
2023-03-29T11:26:32.614Z,57.40
2023-03-29T11:29:04.815Z,57.10
2023-03-29T11:31:39.107Z,57.50
2023-03-29T11:34:23.885Z,57.30
2023-03-29T11:36:55.398Z,59.30
2023-03-29T11:39:29.918Z,58.90
2023-03-29T11:42:01.570Z,58.60
2023-03-29T11:44:32.117Z,58.60
2023-03-29T11:47:03.255Z,59.70
2023-03-29T11:49:34.392Z,60.90
2023-03-29T11:52:07.959Z,61.00
2023-03-29T11:54:44.024Z,60.50
2023-03-29T11:57:15.948Z,60.30
2023-03-29T11:59:49.380Z,60.20
2023-03-29T12:02:21.871Z,58.60
2023-03-29T12:04:54.945Z,58.90
2023-03-29T12:07:28.701Z,58.50
2023-03-29T12:10:00.659Z,58.60
2023-03-29T12:12:31.101Z,59.10
2023-03-29T12:15:11.724Z,58.00
2023-03-29T12:17:42.916Z,57.50
2023-03-29T12:20:14.637Z,57.50
2023-03-29T12:22:47.120Z,57.70
2023-03-29T12:25:19.285Z,58.10
2023-03-29T12:27:54.993Z,57.40
2023-03-29T12:30:29.428Z,56.00
2023-03-29T12:33:21.615Z,55.90
2023-03-29T12:36:03.475Z,55.90
2023-03-29T12:38:53.190Z,56.00
2023-03-29T12:41:42.185Z,56.80
2023-03-29T12:44:39.192Z,57.60
2023-03-29T12:47:27.109Z,56.30
2023-03-29T12:49:59.200Z,55.90
2023-03-29T12:52:31.548Z,56.20
2023-03-29T12:55:01.358Z,56.20
2023-03-29T12:57:30.868Z,57.60
2023-03-29T13:00:10.586Z,58.90
2023-03-29T13:02:40.535Z,60.00
2023-03-29T13:05:23.972Z,60.00
2023-03-29T13:07:52.734Z,59.70
2023-03-29T13:10:31.577Z,59.80
2023-03-29T13:13:09.882Z,59.00
2023-03-29T13:15:41.721Z,58.60
2023-03-29T13:18:21.269Z,58.90
2023-03-29T13:21:01.102Z,58.60
2023-03-29T13:23:35.463Z,58.20
2023-03-29T13:26:27.320Z,58.60
2023-03-29T13:29:08.566Z,60.00
2023-03-29T13:31:42.560Z,60.80
2023-03-29T13:34:17.974Z,60.50
2023-03-29T13:36:52.293Z,60.30
2023-03-29T13:39:22.857Z,60.50
2023-03-29T13:41:56.577Z,59.60
2023-03-29T13:44:27.232Z,57.70
2023-03-29T13:47:13.165Z,58.00
2023-03-29T13:49:44.560Z,57.00
2023-03-29T13:52:16.449Z,57.00
2023-03-29T13:54:49.674Z,55.80
2023-03-29T13:57:20.290Z,55.20
2023-03-29T13:59:53.675Z,54.70
2023-03-29T14:02:28.573Z,54.40
2023-03-29T14:05:02.198Z,54.10
2023-03-29T14:07:31.815Z,53.70
2023-03-29T14:10:01.431Z,53.30
2023-03-29T14:12:33.819Z,54.00
2023-03-29T14:15:04.072Z,54.10
2023-03-29T14:17:32.916Z,52.40
2023-03-29T14:20:06.178Z,53.20
2023-03-29T14:22:35.070Z,53.60
2023-03-29T14:25:04.695Z,54.90
2023-03-29T14:27:33.782Z,55.60
2023-03-29T14:30:02.129Z,56.90
2023-03-29T14:32:31.797Z,57.90
2023-03-29T14:35:01.860Z,57.90
2023-03-29T14:37:32.521Z,58.30
2023-03-29T14:40:01.821Z,58.60
2023-03-29T14:42:30.915Z,59.10
2023-03-29T14:45:00.160Z,58.70
2023-03-29T14:47:30.233Z,58.40
2023-03-29T14:50:01.021Z,58.00
2023-03-29T14:52:30.546Z,58.50
2023-03-29T14:55:02.117Z,58.20
2023-03-29T14:57:35.129Z,58.60
2023-03-29T15:00:13.456Z,59.40
2023-03-29T15:02:49.692Z,59.50
2023-03-29T15:05:27.102Z,59.90
2023-03-29T15:07:56.469Z,60.30
2023-03-29T15:10:27.425Z,60.00
2023-03-29T15:12:56.011Z,60.00
2023-03-29T15:15:26.020Z,60.40
2023-03-29T15:17:56.592Z,59.50
2023-03-29T15:20:29.941Z,59.30
2023-03-29T15:23:01.117Z,59.80
2023-03-29T15:25:34.207Z,59.80
2023-03-29T15:28:02.729Z,60.40
2023-03-29T15:30:35.257Z,60.20
2023-03-29T15:33:11.164Z,60.80
2023-03-29T15:35:39.811Z,61.10
2023-03-29T15:38:08.464Z,61.50
2023-03-29T15:40:38.452Z,62.60
2023-03-29T15:43:07.636Z,62.80
2023-03-29T15:45:36.171Z,63.40
2023-03-29T15:48:10.093Z,64.00
2023-03-29T15:50:39.352Z,64.80
2023-03-29T15:53:15.180Z,65.70
2023-03-29T15:55:46.932Z,65.90
2023-03-29T15:58:16.449Z,66.90
2023-03-29T16:00:46.138Z,66.50
2023-03-29T16:03:16.574Z,66.90
2023-03-29T16:05:46.097Z,67.20
2023-03-29T16:08:14.979Z,67.80
2023-03-29T16:10:44.991Z,67.90
2023-03-29T16:13:16.258Z,67.80
2023-03-29T16:15:44.799Z,68.10
2023-03-29T16:18:12.979Z,68.10
2023-03-29T16:20:41.982Z,68.30
2023-03-29T16:23:11.508Z,68.70
2023-03-29T16:25:41.308Z,68.70
2023-03-29T16:28:12.384Z,69.00
2023-03-29T16:30:48.801Z,69.20
2023-03-29T16:33:16.897Z,68.80
2023-03-29T16:35:45.984Z,69.00
2023-03-29T16:38:14.352Z,68.80
2023-03-29T16:40:42.896Z,69.30
2023-03-29T16:43:16.187Z,69.50
2023-03-29T16:45:46.501Z,68.90
2023-03-29T16:48:15.535Z,69.00
2023-03-29T16:50:44.079Z,69.20
2023-03-29T16:53:12.524Z,69.70
2023-03-29T16:55:40.922Z,69.50
2023-03-29T16:58:09.571Z,69.40
2023-03-29T17:00:54.529Z,69.80
2023-03-29T17:03:23.608Z,70.40
2023-03-29T17:05:52.936Z,70.50
2023-03-29T17:08:21.515Z,71.10
2023-03-29T17:10:55.738Z,71.40
2023-03-29T17:13:24.714Z,71.50
2023-03-29T17:15:55.645Z,71.70
2023-03-29T17:18:25.269Z,71.80
2023-03-29T17:20:54.923Z,72.00
2023-03-29T17:23:23.581Z,72.10
2023-03-29T17:25:52.637Z,72.30
2023-03-29T17:28:21.657Z,72.60
2023-03-29T17:30:50.499Z,73.00
2023-03-29T17:33:22.822Z,73.30
2023-03-29T17:35:51.811Z,73.20
2023-03-29T17:38:21.207Z,73.30
2023-03-29T17:40:53.637Z,73.70
2023-03-29T17:43:24.002Z,73.60
2023-03-29T17:45:53.401Z,73.80
2023-03-29T17:48:24.807Z,73.70
2023-03-29T17:50:53.099Z,73.70
2023-03-29T17:53:21.499Z,73.80
2023-03-29T17:55:49.611Z,73.80
2023-03-29T17:58:18.250Z,73.90
2023-03-29T18:00:46.907Z,74.00
2023-03-29T18:03:15.695Z,74.10
2023-03-29T18:05:45.948Z,74.20
2023-03-29T18:08:15.076Z,74.10
2023-03-29T18:10:43.926Z,74.00
2023-03-29T18:13:14.150Z,74.10
2023-03-29T18:15:42.795Z,74.20
2023-03-29T18:18:11.332Z,74.20
2023-03-29T18:20:39.915Z,74.20
2023-03-29T18:23:09.829Z,74.30
2023-03-29T18:25:39.034Z,74.30
2023-03-29T18:28:07.687Z,74.30
2023-03-29T18:30:37.469Z,74.30
2023-03-29T18:33:06.417Z,74.40
2023-03-29T18:35:34.985Z,74.50
2023-03-29T18:38:04.788Z,74.50
2023-03-29T18:40:34.734Z,74.40
2023-03-29T18:43:03.130Z,74.50
2023-03-29T18:45:32.533Z,74.50
2023-03-29T18:48:02.163Z,74.00
2023-03-29T18:50:31.347Z,73.80
2023-03-29T18:53:00.341Z,73.50
2023-03-29T18:55:36.779Z,73.50
2023-03-29T18:58:06.915Z,73.00
2023-03-29T19:00:35.756Z,72.80
2023-03-29T19:03:04.175Z,72.60
2023-03-29T19:05:33.562Z,72.50
2023-03-29T19:08:02.977Z,72.20
2023-03-29T19:10:31.839Z,72.10
2023-03-29T19:13:00.327Z,72.00
2023-03-29T19:15:30.443Z,72.00
2023-03-29T19:18:00.717Z,71.80
2023-03-29T19:20:30.614Z,71.80
2023-03-29T19:22:58.908Z,71.70
2023-03-29T19:25:27.116Z,71.70
2023-03-29T19:27:55.590Z,71.50
2023-03-29T19:30:26.173Z,71.40
2023-03-29T19:32:58.672Z,71.20
2023-03-29T19:35:26.991Z,71.20
2023-03-29T19:37:56.030Z,71.00
2023-03-29T19:40:24.614Z,71.00
2023-03-29T19:42:53.220Z,71.20
2023-03-29T19:45:21.746Z,71.20
2023-03-29T19:47:56.122Z,71.10
2023-03-29T19:50:24.662Z,71.00
2023-03-29T19:52:54.455Z,70.90
2023-03-29T19:55:23.608Z,70.70
2023-03-29T19:57:52.833Z,70.50
2023-03-29T20:00:24.571Z,70.30
2023-03-29T20:02:52.986Z,70.20
2023-03-29T20:05:22.869Z,70.10
2023-03-29T20:07:51.514Z,70.00
2023-03-29T20:10:19.980Z,69.90
2023-03-29T20:12:48.826Z,69.80
2023-03-29T20:15:17.466Z,69.60
2023-03-29T20:17:45.896Z,69.70
2023-03-29T20:20:17.177Z,69.60
2023-03-29T20:22:47.569Z,69.70
2023-03-29T20:25:16.480Z,69.60
2023-03-29T20:27:45.827Z,69.40
2023-03-29T20:30:14.457Z,69.10
2023-03-29T20:32:43.026Z,69.30
2023-03-29T20:35:12.376Z,69.40
2023-03-29T20:37:40.905Z,69.30
2023-03-29T20:40:13.620Z,69.10
2023-03-29T20:42:46.495Z,69.20
2023-03-29T20:45:19.652Z,69.20
2023-03-29T20:47:50.520Z,69.10
2023-03-29T20:50:20.602Z,69.30
2023-03-29T20:52:49.662Z,69.50
2023-03-29T20:55:22.422Z,69.70
2023-03-29T20:57:54.356Z,70.10
2023-03-29T21:00:23.999Z,70.30
2023-03-29T21:02:52.751Z,70.50
2023-03-29T21:05:21.703Z,70.60
2023-03-29T21:07:50.034Z,70.70
2023-03-29T21:10:20.445Z,70.70
2023-03-29T21:12:49.852Z,70.70
2023-03-29T21:15:18.476Z,70.70
2023-03-29T21:17:46.891Z,70.90
2023-03-29T21:20:15.379Z,70.90
2023-03-29T21:22:44.599Z,70.90
2023-03-29T21:25:15.641Z,70.90
2023-03-29T21:27:45.720Z,71.00
2023-03-29T21:30:16.620Z,70.90
2023-03-29T21:32:46.369Z,71.00
2023-03-29T21:35:14.931Z,71.40
2023-03-29T21:37:43.562Z,71.40
2023-03-29T21:40:13.117Z,71.30
2023-03-29T21:42:45.748Z,71.60
2023-03-29T21:45:14.426Z,71.70
2023-03-29T21:47:44.282Z,71.80
2023-03-29T21:50:12.762Z,71.90
2023-03-29T21:52:41.022Z,71.90
2023-03-29T21:55:09.658Z,72.10
2023-03-29T21:57:38.076Z,72.30
2023-03-29T22:00:12.171Z,72.40
2023-03-29T22:02:41.455Z,72.40
2023-03-29T22:05:10.125Z,72.60
2023-03-29T22:07:39.425Z,72.80
2023-03-29T22:10:11.376Z,73.00
2023-03-29T22:12:41.336Z,73.10
2023-03-29T22:15:12.571Z,73.30
2023-03-29T22:17:42.978Z,73.60
2023-03-29T22:20:14.307Z,73.70
2023-03-29T22:22:45.700Z,73.80
2023-03-29T22:25:14.386Z,73.90
2023-03-29T22:27:45.731Z,73.80
2023-03-29T22:30:16.818Z,73.80
2023-03-29T22:32:45.282Z,73.60
2023-03-29T22:35:14.160Z,73.70
2023-03-29T22:37:43.215Z,73.70
2023-03-29T22:40:15.713Z,73.60
2023-03-29T22:42:44.275Z,73.70
2023-03-29T22:45:12.903Z,73.60
2023-03-29T22:47:43.039Z,73.60
2023-03-29T22:50:12.057Z,73.40
2023-03-29T22:52:40.832Z,73.30
2023-03-29T22:55:09.474Z,73.00
2023-03-29T22:57:38.242Z,73.00
2023-03-29T23:00:09.500Z,73.10
2023-03-29T23:02:38.975Z,72.80
2023-03-29T23:05:10.781Z,72.70
2023-03-29T23:07:39.130Z,72.60
2023-03-29T23:10:08.358Z,72.60
2023-03-29T23:12:37.505Z,72.30
2023-03-29T23:15:06.396Z,72.20
2023-03-29T23:17:35.293Z,72.00
2023-03-29T23:20:06.155Z,71.70
2023-03-29T23:22:36.531Z,71.60
2023-03-29T23:25:05.175Z,71.60
2023-03-29T23:27:33.244Z,71.50
2023-03-29T23:30:01.751Z,71.20
2023-03-29T23:32:31.674Z,71.20
2023-03-29T23:35:00.824Z,71.10
2023-03-29T23:37:29.666Z,71.10
2023-03-29T23:39:59.475Z,70.90
2023-03-29T23:42:28.086Z,70.70
2023-03-29T23:44:57.212Z,70.60
2023-03-29T23:47:27.861Z,70.60
2023-03-29T23:49:56.426Z,70.20
2023-03-29T23:52:24.608Z,69.90
2023-03-29T23:54:52.934Z,69.70
2023-03-29T23:57:22.548Z,69.60
2023-03-29T23:59:52.705Z,69.60
